createdAt,value
2022-08-21T00:01:56.540Z,35.6
2022-08-21T00:07:26.729Z,35.6
2022-08-21T00:13:04.722Z,35.6
2022-08-21T00:18:35.683Z,35.6
2022-08-21T00:23:57.931Z,35.6
2022-08-21T00:29:38.591Z,35.6
2022-08-21T00:35:26.037Z,35.5
2022-08-21T00:41:21.201Z,35.5
2022-08-21T00:47:06.816Z,35.5
2022-08-21T00:52:48.775Z,35.4
2022-08-21T00:58:42.255Z,35.4
2022-08-21T01:04:22.686Z,35.4
2022-08-21T01:09:58.937Z,35.4
2022-08-21T01:21:07.246Z,35.4
2022-08-21T01:26:50.930Z,35.3
2022-08-21T01:32:32.397Z,35.3
2022-08-21T01:38:09.600Z,35.3
2022-08-21T01:43:56.133Z,35.3
2022-08-21T01:49:32.811Z,35.3
2022-08-21T02:00:11.910Z,35.3
2022-08-21T02:06:06.484Z,35.2
2022-08-21T02:17:37.877Z,35.2
2022-08-21T02:23:24.834Z,35.2
2022-08-21T02:34:29.349Z,35.1
2022-08-21T02:45:40.447Z,35.1
2022-08-21T02:51:17.476Z,35.1
2022-08-21T02:56:53.764Z,35
2022-08-21T03:02:14.388Z,35
2022-08-21T03:13:21.494Z,35
2022-08-21T03:19:10.398Z,35
2022-08-21T03:25:00.425Z,34.9
2022-08-21T03:30:37.479Z,34.9
2022-08-21T03:41:38.729Z,34.9
2022-08-21T03:47:14.753Z,34.9
2022-08-21T03:52:36.143Z,34.8
2022-08-21T03:57:48.589Z,34.8
2022-08-21T04:03:20.315Z,34.8
2022-08-21T04:09:05.060Z,34.8
2022-08-21T04:14:48.611Z,34.8
2022-08-21T04:20:27.062Z,34.8
2022-08-21T04:26:25.534Z,34.8
2022-08-21T04:32:08.102Z,34.7
2022-08-21T04:37:46.319Z,34.7
2022-08-21T04:43:39.057Z,34.7
2022-08-21T04:49:36.712Z,34.6
2022-08-21T04:55:15.323Z,34.6
2022-08-21T05:01:11.189Z,34.6
2022-08-21T05:06:18.791Z,34.6
2022-08-21T05:11:45.343Z,34.6
2022-08-21T05:17:26.811Z,34.6
2022-08-21T05:23:13.370Z,34.6
2022-08-21T05:29:04.191Z,34.6
2022-08-21T05:34:48.830Z,34.5
2022-08-21T05:41:10.648Z,34.5
2022-08-21T05:47:21.186Z,34.5
2022-08-21T05:53:06.858Z,34.4
2022-08-21T05:58:47.654Z,34.4
2022-08-21T06:04:35.455Z,34.4
2022-08-21T06:10:24.220Z,34.4
2022-08-21T06:16:04.685Z,34.4
2022-08-21T06:21:47.081Z,34.4
2022-08-21T06:27:29.467Z,34.4
2022-08-21T06:33:10.100Z,34.3
2022-08-21T06:38:52.883Z,34.3
2022-08-21T06:45:16.815Z,34.3
2022-08-21T06:50:43.825Z,34.3
2022-08-21T06:56:27.972Z,34.3
2022-08-21T07:02:07.350Z,34.3
2022-08-21T07:07:45.610Z,34.3
2022-08-21T07:13:33.912Z,34.3
2022-08-21T07:19:11.171Z,34.3
2022-08-21T07:24:49.540Z,40.7
2022-08-21T07:30:31.446Z,39.2
2022-08-21T07:36:10.381Z,37.9
2022-08-21T07:41:57.469Z,37.3
2022-08-21T07:47:58.895Z,36.6
2022-08-21T07:53:37.703Z,36.2
2022-08-21T07:59:22.914Z,35.8
2022-08-21T08:05:07.784Z,35.4
2022-08-21T08:10:44.195Z,41.8
2022-08-21T08:16:27.057Z,44.4
2022-08-21T08:22:07.584Z,46
2022-08-21T08:28:16.816Z,46.3
2022-08-21T08:33:55.627Z,47.5
2022-08-21T08:40:00.798Z,48.4
2022-08-21T08:46:16.172Z,49.3
2022-08-21T08:51:55.145Z,48.7
2022-08-21T08:57:22.823Z,47.9
2022-08-21T09:03:04.887Z,48.3
2022-08-21T09:08:42.485Z,48.9
2022-08-21T09:14:03.447Z,49.8
2022-08-21T09:19:46.312Z,50.1
2022-08-21T09:25:25.951Z,50.3
2022-08-21T09:31:02.118Z,50.4
2022-08-21T09:36:50.756Z,49.9
2022-08-21T09:42:18.320Z,48.9
2022-08-21T09:47:59.485Z,49.8
2022-08-21T09:53:44.385Z,50.1
2022-08-21T09:59:34.163Z,48.8
2022-08-21T10:05:14.099Z,48.3
2022-08-21T10:10:59.646Z,47.4
2022-08-21T10:16:40.624Z,46.8
2022-08-21T10:22:21.552Z,49.3
2022-08-21T10:28:46.536Z,54.4
2022-08-21T10:34:37.901Z,54.6
2022-08-21T10:41:04.750Z,55.4
2022-08-21T10:46:31.679Z,54.3
2022-08-21T10:52:18.568Z,55.1
2022-08-21T10:58:05.576Z,55.8
2022-08-21T11:03:27.170Z,56.6
2022-08-21T11:09:20.614Z,57.3
2022-08-21T11:15:46.104Z,58.3
2022-08-21T11:21:10.367Z,58.8
2022-08-21T11:26:59.108Z,59.1
2022-08-21T11:32:24.730Z,59.3
2022-08-21T11:38:09.621Z,58.4
2022-08-21T11:43:48.183Z,59.2
2022-08-21T11:49:30.996Z,59.9
2022-08-21T11:55:08.269Z,58.9
2022-08-21T12:00:46.698Z,56.9
2022-08-21T12:06:40.681Z,55.4
2022-08-21T12:12:22.698Z,54.5
2022-08-21T12:18:10.121Z,53.9
2022-08-21T12:24:02.156Z,53.3
2022-08-21T12:29:41.425Z,52.7
2022-08-21T12:35:23.340Z,52.2
2022-08-21T12:41:07.108Z,51.8
2022-08-21T12:46:39.914Z,51.4
2022-08-21T12:52:12.463Z,50.9
2022-08-21T12:57:49.818Z,50.5
2022-08-21T13:03:28.115Z,50.1
2022-08-21T13:09:19.419Z,49.6
2022-08-21T13:15:36.835Z,49.1
2022-08-21T13:21:25.722Z,48.6
2022-08-21T13:27:48.034Z,48.2
2022-08-21T13:33:37.691Z,48
2022-08-21T13:39:16.929Z,48.2
2022-08-21T13:45:00.233Z,48.3
2022-08-21T13:50:23.282Z,48.1
2022-08-21T13:56:01.373Z,47.9
2022-08-21T14:01:40.255Z,47.4
2022-08-21T14:07:23.021Z,47.1
2022-08-21T14:13:13.246Z,47.1
2022-08-21T14:19:05.025Z,46.9
2022-08-21T14:24:43.003Z,46.6
2022-08-21T14:30:26.240Z,46.8
2022-08-21T14:36:33.746Z,46.9
2022-08-21T14:41:58.011Z,47.1
2022-08-21T14:48:02.298Z,46.3
2022-08-21T14:53:49.139Z,45.7
2022-08-21T14:59:34.404Z,45.1
2022-08-21T15:05:24.755Z,44.4
2022-08-21T15:11:41.207Z,44.2
2022-08-21T15:17:18.957Z,44.3
2022-08-21T15:23:11.774Z,44.3
2022-08-21T15:28:51.339Z,44.1
2022-08-21T15:34:39.693Z,43.6
2022-08-21T15:40:28.761Z,43.3
2022-08-21T15:46:15.493Z,43
2022-08-21T15:51:59.979Z,42.8
2022-08-21T15:57:40.905Z,42.4
2022-08-21T16:03:23.602Z,42
2022-08-21T16:09:22.528Z,41.8
2022-08-21T16:15:03.022Z,41.5
2022-08-21T16:20:24.532Z,41.1
2022-08-21T16:26:26.106Z,40.1
2022-08-21T16:32:13.568Z,38.6
2022-08-21T16:37:57.362Z,37.8
2022-08-21T16:43:36.464Z,37.1
2022-08-21T16:49:22.452Z,36.7
2022-08-21T16:55:03.685Z,36.3
2022-08-21T17:00:44.766Z,36.1
2022-08-21T17:06:27.343Z,35.8
2022-08-21T17:12:27.517Z,35.6
2022-08-21T17:18:07.753Z,35.4
2022-08-21T17:23:46.954Z,35.4
2022-08-21T17:29:27.737Z,35.3
2022-08-21T17:35:09.002Z,35.3
2022-08-21T17:40:53.469Z,35.2
2022-08-21T17:46:30.529Z,35.2
2022-08-21T17:52:18.083Z,35.1
2022-08-21T17:57:55.937Z,35.1
2022-08-21T18:03:42.405Z,35.1
2022-08-21T18:09:28.425Z,35
2022-08-21T18:14:55.811Z,35
2022-08-21T18:20:38.828Z,34.9
2022-08-21T18:26:29.364Z,34.9
2022-08-21T18:32:00.561Z,34.9
2022-08-21T18:38:01.711Z,34.9
2022-08-21T18:44:21.714Z,34.9
2022-08-21T18:50:10.143Z,34.9
